Friday, May 27, 2016
20:05 UTC
  |  Log In   |  Register Free
Airport Search:

Owatonna Degner Regional Airport
(KOWA)

Owatonna Degner Regional Airport Diagram
No Airport Diagram Available

FAA data valid effective Mar 31 2016 - May 26 2016 (unless otherwise noted).

 
 
 
 
 
 
 
 
 
 
 
 
 
 
Current Aviation Weather for KOWA

Weather Summary


The most recent METAR observation for OWA was updated at: 12:41 UTC
METAR for KOWA is not available. Closest METAR is for KFBL
KOWA  (most recent observation was updatred at 27:19 UTC)
271955Z AUTO 04005KT 10SM RA SCT009 BKN017 18/16 A2977 RMK AO2 P0002

KFBL  (12.5 nm SE)   (most recent observation was updated at 27:19 UTC)
271941Z AUTO 01003KT 7SM SCT008 BKN021 OVC027 18/17 A2978 RMK AO2

KACQ  (13.0 nm NE)   (most recent observation was updated at 27:19 UTC)
271955Z AUTO 00000KT 10SM SCT010 BKN031 OVC100 18/15 A2979 RMK AO2

TAF for KOWA is not available.
GlobalAir.com is loading additional information.
 Current Weather at OWA
64.0 F° (18.0 C°)

North winds at 0.0 mph
Pressure:
29.79 in
Humidity:
88%
Wind:
North at 0.0 mph
Dew Point:
60.8 F° (16.0 C°)
Visibility:
7.00 mi
OWA NOAA Radar




Find All Airport Services Find A Hotel Find A Rental Car Find A Golf Course Find A Restaurant $100 Hamburger



Airport Weather Forecast for KOWA

Translated METAR for KOWA (1955 UTC)
METAR:
KOWA 271955Z AUTO 04005KT 10SM RA SCT009 BKN017 18/16 A2977 RMK AO2 P0002
Conditions at:
KOWA (Owatonna Degner Rgnl, MN) observed 1955 UTC 27 May 2016
Temperature:
18°C (64.4°F)
Dewpoint:
16°C (60.8°F) [RH = 88.1]
Pressure:
29.77 inches Hg (1008.1 mb)
Winds:
from the NE (040 degrees) at 5.8 mph (5 knots: 2.6 m/s)
Visibility:
10 mile(s)
Ceiling:
1,700 feet AGL
Clouds:
Scattered Clouds at 900 feet AGL
Broken Cloud Cover at 1,700 feet AGL
Remarks:
site is un-manned
site is automated and HAS a precipitation sensor

Translated TAF for TAF for OWA is not available. Refer to local area forecast.
FBO's on the Field
FBO Company Facility Photos Services Transportation Aviation Fuel Prices: Prices include tax
Catering Weather Repair Courtesy Rental Type 100LL JetA JetA+ MOGAS 8087
 
Owatonna Degner Regional Airport

This FBO has not yet been rated
FS:Avfuel
Last Updated: May-25
Login to update fuel prices
SS:
Contact Owatonna Degner Regional AirportMore FBO Information
 
Add another FBO Facility Photos Catering Weather Repair Courtesy Rental Type 100LL JetA JetA+ MOGAS 8087
Services Transportation Aviation Fuel Prices: Prices include tax


model-print
model-print
model-print
model-print